Time;durP1;ratioP1;P1;durP2;ratioP2;P2;SDS_P1;SDS_P2;PMS_P1;PMS_P2;Temp;Humidity;BMP_temperature;BMP_pressure;BME280_temperature;BME280_humidity;BME280_pressure;Samples;Min_cycle;Max_cycle;Signal;HPM_P1;HPM_P2
2021/12/13 00:01:58;;;;;;;;;40.50;34.00;;;;;;;;5183325;27;12544;-74
2021/12/13 00:04:27;;;;;;;;;28.50;25.00;;;;;;;;5184272;27;11546;-75
2021/12/13 00:06:54;;;;;;;;;30.50;25.50;;;;;;;;5183831;27;10963;-74
2021/12/13 00:09:23;;;;;;;;;27.50;24.00;;;;;;;;5184129;27;13299;-73
2021/12/13 00:11:50;;;;;;;;;29.25;25.00;;;;;;;;5184037;27;13324;-74
2021/12/13 00:14:21;;;;;;;;;25.50;20.50;;;;;;;;5183907;27;10442;-73
2021/12/13 00:16:49;;;;;;;;;24.50;21.50;;;;;;;;5183170;27;11473;-73
2021/12/13 00:19:19;;;;;;;;;24.75;22.00;;;;;;;;5183767;27;8825;-74
2021/12/13 00:22:08;;;;;;;;;24.00;20.00;;;;;;;;5183346;27;10900;-73
2021/12/13 00:24:35;;;;;;;;;20.25;18.50;;;;;;;;5183804;27;9644;-73
2021/12/13 00:27:11;;;;;;;;;24.50;19.50;;;;;;;;5183413;27;12655;-74
2021/12/13 00:29:48;;;;;;;;;24.00;18.25;;;;;;;;5183398;27;11790;-74
2021/12/13 00:32:16;;;;;;;;;18.50;18.00;;;;;;;;5183747;27;10520;-74
2021/12/13 00:34:43;;;;;;;;;23.00;21.00;;;;;;;;5183175;27;14638;-74
2021/12/13 00:37:10;;;;;;;;;22.00;19.00;;;;;;;;5183848;27;12268;-74
2021/12/13 00:39:57;;;;;;;;;24.50;19.75;;;;;;;;5183788;27;10071;-73
2021/12/13 00:42:24;;;;;;;;;21.00;20.00;;;;;;;;5183889;27;11634;-73
2021/12/13 00:44:52;;;;;;;;;16.50;16.50;;;;;;;;5184042;27;12256;-75
2021/12/13 00:47:19;;;;;;;;;24.00;20.50;;;;;;;;5183002;27;13379;-74
2021/12/13 00:49:46;;;;;;;;;22.75;19.00;;;;;;;;5183488;27;12294;-73
2021/12/13 00:52:14;;;;;;;;;26.50;19.00;;;;;;;;5182844;27;12781;-74
2021/12/13 00:54:41;;;;;;;;;17.75;17.75;;;;;;;;5183542;27;9168;-73
2021/12/13 00:57:07;;;;;;;;;23.75;18.00;;;;;;;;5183459;27;13370;-74
2021/12/13 00:59:40;;;;;;;;;32.25;26.00;;;;;;;;5183358;27;13477;-73
2021/12/13 01:02:08;;;;;;;;;31.75;26.25;;;;;;;;5183167;27;11759;-73
2021/12/13 01:04:52;;;;;;;;;35.00;31.75;;;;;;;;5183481;27;11521;-74
2021/12/13 01:07:17;;;;;;;;;31.00;29.00;;;;;;;;5183578;27;11478;-74
2021/12/13 01:10:01;;;;;;;;;28.25;21.75;;;;;;;;5183656;27;12202;-73
2021/12/13 01:12:27;;;;;;;;;25.75;24.75;;;;;;;;5182344;27;13313;-73
2021/12/13 01:15:11;;;;;;;;;22.25;16.25;;;;;;;;5183482;27;10733;-73
2021/12/13 01:20:23;;;;;;;;;32.00;27.75;;;;;;;;5183012;27;12247;-73
2021/12/13 01:22:54;;;;;;;;;34.50;30.00;;;;;;;;5182991;27;8930;-73
2021/12/13 01:25:44;;;;;;;;;32.50;30.00;;;;;;;;5182810;27;12361;-73
2021/12/13 01:28:12;;;;;;;;;27.75;26.25;;;;;;;;5182915;27;8758;-74
2021/12/13 01:30:43;;;;;;;;;35.50;27.75;;;;;;;;5163757;27;14171;-74
2021/12/13 01:33:10;;;;;;;;;30.25;28.00;;;;;;;;5181988;27;12294;-73
2021/12/13 01:35:41;;;;;;;;;25.75;23.00;;;;;;;;5182396;27;11517;-73
2021/12/13 01:38:15;;;;;;;;;37.00;33.00;;;;;;;;5182243;27;11456;-73
2021/12/13 01:40:42;;;;;;;;;42.25;33.75;;;;;;;;5181638;27;12698;-73
2021/12/13 01:43:13;;;;;;;;;33.75;31.50;;;;;;;;5182779;27;13801;-74
2021/12/13 01:45:40;;;;;;;;;33.25;28.75;;;;;;;;5182596;27;13652;-74
2021/12/13 01:48:13;;;;;;;;;35.25;29.00;;;;;;;;5182167;27;12265;-74
2021/12/13 01:50:47;;;;;;;;;30.75;29.25;;;;;;;;5182529;27;11460;-74
2021/12/13 01:53:12;;;;;;;;;29.00;29.00;;;;;;;;5182889;27;11600;-74
2021/12/13 01:55:40;;;;;;;;;34.00;28.50;;;;;;;;5182233;27;14428;-73
2021/12/13 01:58:26;;;;;;;;;36.25;29.75;;;;;;;;5181592;27;13401;-73
2021/12/13 02:01:09;;;;;;;;;30.25;24.75;;;;;;;;5182373;27;11660;-74
2021/12/13 02:03:49;;;;;;;;;36.00;34.25;;;;;;;;5182253;27;8949;-73
2021/12/13 02:06:21;;;;;;;;;35.75;33.25;;;;;;;;5182329;27;12627;-74
2021/12/13 02:08:50;;;;;;;;;32.00;29.50;;;;;;;;5181625;27;10438;-73
2021/12/13 02:11:16;;;;;;;;;31.75;26.75;;;;;;;;5181327;27;12297;-73
2021/12/13 02:14:03;;;;;;;;;32.25;32.25;;;;;;;;5181820;27;11412;-73
2021/12/13 02:19:19;;;;;;;;;32.00;31.75;;;;;;;;5181788;27;10394;-73
2021/12/13 02:21:49;;;;;;;;;35.50;33.75;;;;;;;;5182141;27;8778;-74
2021/12/13 02:24:14;;;;;;;;;34.00;29.00;;;;;;;;5162988;27;13842;-74
2021/12/13 02:26:42;;;;;;;;;29.75;28.00;;;;;;;;5162717;27;14228;-73
2021/12/13 02:29:11;;;;;;;;;43.00;36.50;;;;;;;;5181180;27;12951;-73
2021/12/13 02:31:38;;;;;;;;;35.25;30.50;;;;;;;;5181356;27;13326;-73
2021/12/13 02:34:05;;;;;;;;;32.00;25.00;;;;;;;;5182078;27;12453;-73
2021/12/13 02:36:41;;;;;;;;;26.00;23.50;;;;;;;;5181702;27;12512;-73
2021/12/13 02:39:09;;;;;;;;;29.50;28.00;;;;;;;;5181309;27;13971;-74
2021/12/13 02:41:37;;;;;;;;;26.25;23.75;;;;;;;;5181904;27;11539;-73
2021/12/13 02:44:06;;;;;;;;;28.50;27.25;;;;;;;;5181768;27;12762;-74
2021/12/13 02:46:32;;;;;;;;;26.50;25.00;;;;;;;;5166395;27;12357;-74
2021/12/13 02:49:00;;;;;;;;;25.75;25.50;;;;;;;;5186016;27;11453;-73
2021/12/13 02:51:28;;;;;;;;;21.75;21.75;;;;;;;;5184919;27;11604;-73
2021/12/13 02:53:56;;;;;;;;;25.75;21.00;;;;;;;;5185559;27;12501;-74
2021/12/13 02:56:24;;;;;;;;;23.00;18.75;;;;;;;;5185280;27;13350;-73
2021/12/13 02:58:50;;;;;;;;;24.25;20.25;;;;;;;;5165961;27;14379;-73
2021/12/13 03:01:28;;;;;;;;;23.50;19.25;;;;;;;;5185033;27;11865;-74
2021/12/13 03:03:55;;;;;;;;;14.00;11.75;;;;;;;;5185283;27;11497;-73
2021/12/13 03:06:23;;;;;;;;;21.50;20.50;;;;;;;;5184518;27;12436;-73
2021/12/13 03:08:56;;;;;;;;;18.00;16.00;;;;;;;;5185214;27;13357;-74
2021/12/13 03:11:27;;;;;;;;;19.00;16.75;;;;;;;;5184530;27;13307;-73
2021/12/13 03:13:55;;;;;;;;;25.25;21.00;;;;;;;;5166106;27;11628;-73
2021/12/13 03:16:23;;;;;;;;;19.25;17.50;;;;;;;;5165719;27;13681;-73
2021/12/13 03:18:57;;;;;;;;;22.00;22.00;;;;;;;;5185307;27;13310;-74
2021/12/13 03:21:40;;;;;;;;;22.00;18.00;;;;;;;;5184941;27;13331;-73
2021/12/13 03:24:09;;;;;;;;;22.25;19.00;;;;;;;;5184676;27;8910;-72
2021/12/13 03:26:47;;;;;;;;;22.00;18.75;;;;;;;;5185067;27;10167;-72
2021/12/13 03:29:18;;;;;;;;;20.75;20.75;;;;;;;;5166092;27;12817;-73
2021/12/13 03:31:48;;;;;;;;;23.75;19.00;;;;;;;;5184755;27;11966;-73
2021/12/13 03:34:24;;;;;;;;;19.25;18.25;;;;;;;;5184633;27;12575;-73
2021/12/13 03:37:11;;;;;;;;;24.00;21.50;;;;;;;;5184522;27;13904;-73
2021/12/13 03:39:41;;;;;;;;;21.25;20.50;;;;;;;;5183467;27;13392;-72
2021/12/13 03:42:17;;;;;;;;;18.00;16.50;;;;;;;;5184733;27;10684;-73
2021/12/13 03:44:46;;;;;;;;;19.75;18.00;;;;;;;;5184581;27;12527;-73
2021/12/13 03:47:14;;;;;;;;;23.75;19.00;;;;;;;;5184424;27;11615;-72
2021/12/13 03:49:46;;;;;;;;;21.25;18.75;;;;;;;;5184259;27;10445;-73
2021/12/13 03:52:13;;;;;;;;;28.50;25.00;;;;;;;;5183821;27;12045;-72
2021/12/13 03:54:39;;;;;;;;;30.25;27.75;;;;;;;;5184186;27;12270;-72
2021/12/13 03:57:05;;;;;;;;;30.00;27.25;;;;;;;;5183102;27;14910;-73
2021/12/13 03:59:33;;;;;;;;;33.25;28.50;;;;;;;;5183619;27;8817;-72
2021/12/13 04:02:01;;;;;;;;;36.50;32.00;;;;;;;;5183903;27;11834;-73
2021/12/13 04:04:29;;;;;;;;;20.50;20.50;;;;;;;;5184550;27;12282;-73
2021/12/13 04:07:00;;;;;;;;;29.25;24.50;;;;;;;;5183983;27;13379;-72
2021/12/13 04:09:28;;;;;;;;;29.00;25.00;;;;;;;;5183515;27;10825;-72
2021/12/13 04:11:55;;;;;;;;;30.75;27.00;;;;;;;;5183726;27;10449;-73
2021/12/13 04:14:34;;;;;;;;;30.75;28.25;;;;;;;;5183549;27;12452;-73
2021/12/13 04:17:07;;;;;;;;;28.25;24.50;;;;;;;;5183722;27;10192;-73
2021/12/13 08:36:51;;;;;;;;;39.75;38.25;;;;;;;;5033349;27;5025659;-75
2021/12/13 08:39:22;;;;;;;;;35.75;30.00;;;;;;;;5134754;27;24116;-76
2021/12/13 08:41:48;;;;;;;;;30.75;29.25;;;;;;;;5193835;27;11722;-76
2021/12/13 08:44:15;;;;;;;;;25.25;24.00;;;;;;;;5191580;27;12778;-73
2021/12/13 08:46:46;;;;;;;;;28.00;27.00;;;;;;;;5188626;27;13321;-75
2021/12/13 08:49:30;;;;;;;;;25.25;25.00;;;;;;;;5190486;27;10477;-75
2021/12/13 08:51:55;;;;;;;;;25.25;24.50;;;;;;;;5191064;27;10518;-77
2021/12/13 08:54:32;;;;;;;;;33.00;29.50;;;;;;;;5201850;27;9119;-78
2021/12/13 08:56:58;;;;;;;;;28.00;27.25;;;;;;;;5172913;27;14229;-75
2021/12/13 08:59:25;;;;;;;;;28.50;27.00;;;;;;;;5192474;27;13376;-77
2021/12/13 09:01:53;;;;;;;;;26.75;26.00;;;;;;;;5186462;27;8799;-77
2021/12/13 09:04:26;;;;;;;;;28.25;27.50;;;;;;;;5187385;27;10438;-74
2021/12/13 09:06:54;;;;;;;;;35.50;30.00;;;;;;;;5186712;27;11472;-72
2021/12/13 09:09:20;;;;;;;;;31.75;30.50;;;;;;;;5185211;27;13671;-73
2021/12/13 09:12:00;;;;;;;;;29.75;26.50;;;;;;;;5186475;27;11747;-73
2021/12/13 09:14:39;;;;;;;;;31.50;28.25;;;;;;;;5185341;27;10972;-72
2021/12/13 09:17:16;;;;;;;;;31.25;26.00;;;;;;;;5180306;27;13470;-74
2021/12/13 09:19:44;;;;;;;;;35.00;31.00;;;;;;;;5176969;27;10586;-71
2021/12/13 09:22:12;;;;;;;;;35.25;29.75;;;;;;;;5178187;27;11593;-74
2021/12/13 09:24:40;;;;;;;;;28.50;27.25;;;;;;;;5176736;27;12487;-73
2021/12/13 09:27:15;;;;;;;;;31.00;30.75;;;;;;;;5157659;27;13053;-78
2021/12/13 09:30:01;;;;;;;;;32.50;30.25;;;;;;;;5156918;27;13735;-74
2021/12/13 09:32:38;;;;;;;;;33.25;30.50;;;;;;;;5175988;27;10845;-73
2021/12/13 09:35:18;;;;;;;;;37.75;31.50;;;;;;;;5175623;27;12921;-73
2021/12/13 09:37:44;;;;;;;;;30.50;29.50;;;;;;;;5176980;27;9632;-72
2021/12/13 09:40:10;;;;;;;;;31.33;28.67;;;;;;;;5176378;27;12742;-72
2021/12/13 09:42:49;;;;;;;;;31.50;28.50;;;;;;;;5177264;27;11474;-72
2021/12/13 09:45:21;;;;;;;;;30.67;28.67;;;;;;;;5177008;27;8756;-73
2021/12/13 09:47:46;;;;;;;;;32.67;28.67;;;;;;;;5162781;27;11515;-73
2021/12/13 09:50:14;;;;;;;;;39.00;31.75;;;;;;;;5163394;27;8871;-73
2021/12/13 09:52:47;;;;;;;;;41.50;33.75;;;;;;;;5163127;27;12299;-73
2021/12/13 09:55:22;;;;;;;;;37.75;32.00;;;;;;;;5163042;27;12279;-72
2021/12/13 09:57:50;;;;;;;;;33.75;32.00;;;;;;;;5163141;27;13324;-73
2021/12/13 10:00:20;;;;;;;;;32.50;32.50;;;;;;;;5163362;27;8786;-73
2021/12/13 10:02:48;;;;;;;;;38.25;35.75;;;;;;;;5163469;27;11478;-73
2021/12/13 10:05:17;;;;;;;;;36.75;35.25;;;;;;;;5162389;27;11543;-73
2021/12/13 10:07:44;;;;;;;;;39.33;36.33;;;;;;;;5162420;27;10424;-73
2021/12/13 10:10:20;;;;;;;;;42.75;35.75;;;;;;;;5163612;27;9606;-72
2021/12/13 10:12:47;;;;;;;;;39.00;35.75;;;;;;;;5163509;27;14092;-73
2021/12/13 10:15:19;;;;;;;;;29.00;26.25;;;;;;;;5162569;27;10249;-74
2021/12/13 10:17:46;;;;;;;;;44.25;36.75;;;;;;;;5163077;27;12460;-73
2021/12/13 10:20:14;;;;;;;;;19.25;13.75;;;;;;;;5162800;27;12299;-73
2021/12/13 10:22:39;;;;;;;;;37.75;35.00;;;;;;;;5144442;27;13306;-73
2021/12/13 10:25:05;;;;;;;;;42.25;37.00;;;;;;;;5163105;27;13390;-72
2021/12/13 10:27:31;;;;;;;;;41.75;35.50;;;;;;;;5162993;27;11361;-73
2021/12/13 10:29:58;;;;;;;;;36.50;34.25;;;;;;;;5162839;27;11486;-74
2021/12/13 10:32:26;;;;;;;;;36.00;34.25;;;;;;;;5162270;27;13387;-73
2021/12/13 10:34:54;;;;;;;;;37.25;32.75;;;;;;;;5162433;27;8796;-73
2021/12/13 10:37:48;;;;;;;;;33.50;31.50;;;;;;;;5162985;27;10426;-74
2021/12/13 10:40:16;;;;;;;;;33.50;29.75;;;;;;;;5139228;27;12694;-73
2021/12/13 10:42:45;;;;;;;;;42.50;35.75;;;;;;;;5162267;27;10774;-74
2021/12/13 10:45:14;;;;;;;;;38.25;35.00;;;;;;;;5162572;27;10499;-73
2021/12/13 10:47:41;;;;;;;;;38.75;31.50;;;;;;;;5162911;27;13321;-73
2021/12/13 10:50:10;;;;;;;;;33.75;31.00;;;;;;;;5162320;27;10502;-74
2021/12/13 10:52:39;;;;;;;;;40.50;34.75;;;;;;;;5162763;27;12734;-74
2021/12/13 10:55:13;;;;;;;;;33.00;28.50;;;;;;;;5162783;27;14392;-73
2021/12/13 10:57:43;;;;;;;;;37.75;35.00;;;;;;;;5161249;27;14381;-73
2021/12/13 11:00:12;;;;;;;;;39.75;38.50;;;;;;;;5161322;27;12442;-74
2021/12/13 11:02:38;;;;;;;;;42.33;38.00;;;;;;;;5161921;27;11629;-72
2021/12/13 11:05:11;;;;;;;;;46.33;38.00;;;;;;;;5161734;27;13244;-77
2021/12/13 11:07:37;;;;;;;;;37.00;34.33;;;;;;;;5162487;27;8832;-74
2021/12/13 11:10:04;;;;;;;;;37.33;35.67;;;;;;;;5162064;27;13504;-74
2021/12/13 11:12:32;;;;;;;;;36.50;34.50;;;;;;;;5161348;27;10430;-74
2021/12/13 11:14:59;;;;;;;;;39.75;36.25;;;;;;;;5161638;27;12027;-74
2021/12/13 11:17:26;;;;;;;;;42.25;35.25;;;;;;;;5161301;27;12636;-75
2021/12/13 11:19:54;;;;;;;;;40.50;36.00;;;;;;;;5143162;27;11820;-75
2021/12/13 11:22:25;;;;;;;;;43.75;34.75;;;;;;;;5161424;27;11758;-77
2021/12/13 11:24:53;;;;;;;;;38.25;35.00;;;;;;;;5142603;27;11922;-76
2021/12/13 11:27:21;;;;;;;;;41.50;34.75;;;;;;;;5161513;27;13708;-74
2021/12/13 11:29:46;;;;;;;;;47.50;41.00;;;;;;;;5162114;27;13359;-74
2021/12/13 11:32:31;;;;;;;;;44.75;38.00;;;;;;;;5161408;27;12401;-75
2021/12/13 11:35:11;;;;;;;;;45.75;38.25;;;;;;;;5160445;27;11538;-77
2021/12/13 11:38:05;;;;;;;;;48.25;39.75;;;;;;;;5162032;27;11516;-73
2021/12/13 11:40:55;;;;;;;;;50.00;40.25;;;;;;;;5138666;27;11483;-72
2021/12/13 11:43:20;;;;;;;;;49.25;42.00;;;;;;;;5161303;27;12304;-72
2021/12/13 11:45:52;;;;;;;;;52.00;43.25;;;;;;;;5161443;27;13400;-71
2021/12/13 11:48:53;;;;;;;;;48.25;39.00;;;;;;;;5161751;27;14673;-72
2021/12/13 11:51:30;;;;;;;;;52.00;41.50;;;;;;;;5056452;28;13328;-73
2021/12/13 11:54:14;;;;;;;;;47.75;39.25;;;;;;;;5146976;27;13849;-69
2021/12/13 11:56:57;;;;;;;;;45.00;37.67;;;;;;;;5161097;27;13547;-71
2021/12/13 11:59:38;;;;;;;;;49.00;42.00;;;;;;;;5161047;27;12873;-71
2021/12/13 12:02:08;;;;;;;;;46.33;41.00;;;;;;;;5161250;27;12351;-71
2021/12/13 12:04:52;;;;;;;;;46.00;39.00;;;;;;;;5161004;27;10495;-70
2021/12/13 12:07:25;;;;;;;;;47.67;41.00;;;;;;;;5161459;27;11528;-72
2021/12/13 12:10:02;;;;;;;;;51.00;40.33;;;;;;;;5160905;27;12044;-72
2021/12/13 12:12:28;;;;;;;;;50.33;40.00;;;;;;;;5162635;27;14002;-75
2021/12/13 12:15:00;;;;;;;;;53.33;41.67;;;;;;;;5181713;27;11543;-76
2021/12/13 12:17:25;;;;;;;;;44.33;38.00;;;;;;;;5181577;27;11965;-75
2021/12/13 12:19:51;;;;;;;;;46.67;39.33;;;;;;;;5180987;27;13520;-74
2021/12/13 12:22:18;;;;;;;;;37.67;34.00;;;;;;;;5181755;27;11425;-75
2021/12/13 12:24:52;;;;;;;;;47.33;39.00;;;;;;;;5182055;27;13297;-82
2021/12/13 12:27:22;;;;;;;;;43.33;37.33;;;;;;;;5170046;27;12776;-78
2021/12/13 12:29:49;;;;;;;;;44.67;38.33;;;;;;;;5150920;27;12081;-79
2021/12/13 12:32:19;;;;;;;;;47.67;39.33;;;;;;;;5169550;27;10447;-79
2021/12/13 12:34:47;;;;;;;;;44.00;37.00;;;;;;;;5169375;27;8918;-82
2021/12/13 12:37:19;;;;;;;;;48.67;42.00;;;;;;;;5171694;27;11632;-81
2021/12/13 12:39:51;;;;;;;;;42.33;38.33;;;;;;;;5170928;27;11494;-80
2021/12/13 12:42:17;;;;;;;;;51.33;42.00;;;;;;;;5169997;27;12947;-83
2021/12/13 12:44:57;;;;;;;;;47.00;39.67;;;;;;;;5170639;27;13402;-77
2021/12/13 12:47:54;;;;;;;;;43.33;39.00;;;;;;;;5165836;27;13540;-75
2021/12/13 12:50:24;;;;;;;;;43.33;40.67;;;;;;;;5160128;27;11536;-76
2021/12/13 12:52:49;;;;;;;;;50.67;41.33;;;;;;;;5160006;27;10500;-75
2021/12/13 12:55:17;;;;;;;;;38.00;36.67;;;;;;;;5160510;27;13443;-74
2021/12/13 12:57:42;;;;;;;;;43.67;38.33;;;;;;;;5160555;27;13491;-75
2021/12/13 13:00:08;;;;;;;;;42.67;38.33;;;;;;;;5160435;27;13495;-76
2021/12/13 13:02:34;;;;;;;;;38.33;35.00;;;;;;;;5160669;27;8792;-75
2021/12/13 13:05:03;;;;;;;;;39.33;36.33;;;;;;;;5170985;27;13841;-75
2021/12/13 13:07:33;;;;;;;;;40.00;38.33;;;;;;;;5181154;27;11633;-78
2021/12/13 13:13:06;;;;;;;;;41.33;35.33;;;;;;;;5160861;27;8786;-75
2021/12/13 13:15:33;;;;;;;;;43.33;39.00;;;;;;;;5181063;27;8961;-77
2021/12/13 13:18:01;;;;;;;;;46.67;40.00;;;;;;;;5177574;27;11636;-76
2021/12/13 13:20:31;;;;;;;;;45.00;40.00;;;;;;;;5164561;27;11702;-74
2021/12/13 13:22:57;;;;;;;;;43.33;39.00;;;;;;;;5172536;27;8984;-76
2021/12/13 13:25:42;;;;;;;;;45.33;41.33;;;;;;;;5174471;27;12807;-79
2021/12/13 13:28:27;;;;;;;;;49.00;40.33;;;;;;;;5174279;27;12972;-77
2021/12/13 13:30:53;;;;;;;;;50.33;40.00;;;;;;;;5172565;27;10636;-76
2021/12/13 13:33:29;;;;;;;;;52.33;40.67;;;;;;;;5181503;27;14114;-76
2021/12/13 13:35:54;;;;;;;;;45.67;39.00;;;;;;;;5183856;27;12008;-74
2021/12/13 13:38:19;;;;;;;;;49.00;40.33;;;;;;;;5183683;27;13414;-75
2021/12/13 13:40:45;;;;;;;;;37.67;32.33;;;;;;;;5173601;27;12375;-82
2021/12/13 13:43:12;;;;;;;;;49.33;40.67;;;;;;;;5153908;27;12718;-82
2021/12/13 13:45:52;;;;;;;;;44.00;38.33;;;;;;;;5172979;27;14433;-83
2021/12/13 13:48:22;;;;;;;;;43.33;39.33;;;;;;;;5156228;27;14560;-82
2021/12/13 13:50:53;;;;;;;;;47.00;39.33;;;;;;;;5173982;27;10988;-81
2021/12/13 13:53:25;;;;;;;;;43.33;39.33;;;;;;;;5174809;27;9011;-82
2021/12/13 13:55:50;;;;;;;;;43.33;38.67;;;;;;;;5172542;27;9181;-81
2021/12/13 13:58:27;;;;;;;;;46.33;41.00;;;;;;;;5172873;27;9294;-82
2021/12/13 14:01:10;;;;;;;;;46.33;39.67;;;;;;;;5172066;27;12362;-81
2021/12/13 14:03:40;;;;;;;;;38.67;36.67;;;;;;;;5153472;27;10619;-81
2021/12/13 14:06:07;;;;;;;;;38.00;35.67;;;;;;;;5152724;27;12964;-82
2021/12/13 14:08:35;;;;;;;;;40.00;37.67;;;;;;;;5174120;27;9616;-82
2021/12/13 14:11:01;;;;;;;;;39.67;34.33;;;;;;;;5174045;27;10470;-82
2021/12/13 14:13:31;;;;;;;;;39.00;36.33;;;;;;;;5173257;27;13781;-81
2021/12/13 14:15:57;;;;;;;;;35.33;35.33;;;;;;;;5172403;27;9638;-81
2021/12/13 14:18:27;;;;;;;;;43.33;36.67;;;;;;;;5171553;27;10560;-82
2021/12/13 14:20:57;;;;;;;;;41.33;36.00;;;;;;;;5173568;27;14654;-81
2021/12/13 14:23:24;;;;;;;;;42.00;37.00;;;;;;;;5171578;27;11462;-81
2021/12/13 14:25:52;;;;;;;;;38.33;36.67;;;;;;;;5172778;27;10489;-81
2021/12/13 14:28:23;;;;;;;;;43.67;38.67;;;;;;;;5172756;27;13836;-82
2021/12/13 14:30:50;;;;;;;;;43.00;37.33;;;;;;;;5129145;27;12749;-81
2021/12/13 14:33:30;;;;;;;;;42.33;38.67;;;;;;;;5149810;27;10447;-86
2021/12/13 14:36:14;;;;;;;;;40.33;37.00;;;;;;;;5142169;27;11667;-80
2021/12/13 14:38:42;;;;;;;;;46.33;39.00;;;;;;;;5143024;27;11652;-81
2021/12/13 14:41:09;;;;;;;;;47.00;39.00;;;;;;;;5142973;27;8784;-78
2021/12/13 14:43:37;;;;;;;;;43.00;39.33;;;;;;;;5143292;27;8953;-76
2021/12/13 14:46:08;;;;;;;;;47.33;39.33;;;;;;;;5142310;27;11936;-75
2021/12/13 14:48:33;;;;;;;;;40.67;36.00;;;;;;;;5140570;27;8965;-73
2021/12/13 14:51:01;;;;;;;;;47.00;38.67;;;;;;;;5083010;27;12226;-71
2021/12/13 14:53:28;;;;;;;;;46.00;40.00;;;;;;;;5134949;27;11654;-73
2021/12/13 14:55:56;;;;;;;;;46.00;40.33;;;;;;;;5139732;27;12766;-75
2021/12/13 14:58:29;;;;;;;;;44.33;38.67;;;;;;;;5142139;27;8796;-77
2021/12/13 15:01:01;;;;;;;;;52.67;43.00;;;;;;;;5141877;27;12471;-74
2021/12/13 15:03:27;;;;;;;;;44.00;38.33;;;;;;;;5139807;27;13508;-75
2021/12/13 15:05:55;;;;;;;;;49.33;41.33;;;;;;;;5140277;27;13337;-75
2021/12/13 15:08:22;;;;;;;;;51.33;40.33;;;;;;;;5141240;27;11477;-75
2021/12/13 15:10:50;;;;;;;;;48.33;41.67;;;;;;;;5141025;27;10527;-74
2021/12/13 15:13:18;;;;;;;;;48.67;39.00;;;;;;;;5141282;27;13539;-74
2021/12/13 15:15:49;;;;;;;;;43.33;39.00;;;;;;;;5140544;27;13645;-75
2021/12/13 15:18:15;;;;;;;;;53.67;43.00;;;;;;;;5140962;27;9129;-75
2021/12/13 15:20:44;;;;;;;;;48.00;42.00;;;;;;;;5140919;27;12510;-72
2021/12/13 15:23:16;;;;;;;;;53.00;42.00;;;;;;;;5140038;27;12482;-74
2021/12/13 15:25:46;;;;;;;;;49.33;42.33;;;;;;;;5140043;27;8792;-75
2021/12/13 15:28:25;;;;;;;;;52.33;42.67;;;;;;;;5140780;27;13320;-75
2021/12/13 15:30:52;;;;;;;;;49.33;43.00;;;;;;;;5141317;27;14490;-78
2021/12/13 15:33:17;;;;;;;;;45.00;40.33;;;;;;;;5140979;27;13348;-75
2021/12/13 15:35:45;;;;;;;;;54.33;42.33;;;;;;;;5138329;27;13548;-77
2021/12/13 15:38:13;;;;;;;;;53.00;43.00;;;;;;;;5141121;27;12273;-76
2021/12/13 15:40:50;;;;;;;;;49.33;42.33;;;;;;;;5140987;27;12003;-75
2021/12/13 15:43:34;;;;;;;;;57.67;47.00;;;;;;;;5140837;27;14535;-77
2021/12/13 15:46:02;;;;;;;;;48.33;41.00;;;;;;;;5139256;27;13695;-75
2021/12/13 15:51:19;;;;;;;;;52.67;44.00;;;;;;;;5140154;27;12243;-74
2021/12/13 15:53:45;;;;;;;;;57.33;45.33;;;;;;;;5140592;27;8862;-74
2021/12/13 16:49:31;;;;;;;;;59.25;48.00;;;;;;;;5194891;27;78811;-72
2021/12/13 16:52:00;;;;;;;;;56.50;46.25;;;;;;;;5177689;27;22597;-74
2021/12/13 16:54:29;;;;;;;;;61.25;45.25;;;;;;;;5178145;27;11473;-72
2021/12/13 16:56:58;;;;;;;;;61.00;50.75;;;;;;;;5177844;27;12463;-74
2021/12/13 16:59:23;;;;;;;;;56.00;45.00;;;;;;;;5177527;27;11452;-73
2021/12/13 17:01:50;;;;;;;;;56.00;49.00;;;;;;;;5178324;27;13384;-74
2021/12/13 17:04:18;;;;;;;;;54.00;44.33;;;;;;;;5158120;27;9577;-74
2021/12/13 17:06:46;;;;;;;;;66.00;53.25;;;;;;;;5177915;27;11469;-74
2021/12/13 17:09:12;;;;;;;;;61.25;51.75;;;;;;;;5178821;27;10711;-77
2021/12/13 17:11:38;;;;;;;;;65.50;54.00;;;;;;;;5177919;27;11499;-75
2021/12/13 17:14:16;;;;;;;;;69.25;55.00;;;;;;;;5177707;27;11649;-73
2021/12/13 17:17:14;;;;;;;;;69.25;55.50;;;;;;;;5178366;27;10452;-73
2021/12/13 17:19:44;;;;;;;;;64.75;53.00;;;;;;;;5121658;27;8953;-73
2021/12/13 17:22:11;;;;;;;;;68.50;56.50;;;;;;;;5156515;27;11625;-74
2021/12/13 17:24:38;;;;;;;;;62.50;53.75;;;;;;;;5155924;27;11682;-73
2021/12/13 17:27:12;;;;;;;;;72.25;55.00;;;;;;;;5164671;27;12222;-71
2021/12/13 17:29:57;;;;;;;;;76.75;59.00;;;;;;;;5177940;27;13386;-73
2021/12/13 17:32:36;;;;;;;;;62.50;50.00;;;;;;;;5177846;27;9663;-72
2021/12/13 17:35:10;;;;;;;;;72.75;57.25;;;;;;;;5176806;27;12467;-73
2021/12/13 17:37:42;;;;;;;;;78.00;60.25;;;;;;;;5161739;27;13710;-72
2021/12/13 17:40:16;;;;;;;;;72.75;56.75;;;;;;;;5164977;27;12057;-72
2021/12/13 17:42:46;;;;;;;;;67.25;54.00;;;;;;;;5165127;27;12026;-71
2021/12/13 17:45:15;;;;;;;;;68.50;55.50;;;;;;;;5166775;27;13529;-73
2021/12/13 17:47:41;;;;;;;;;66.25;53.25;;;;;;;;5163000;27;11645;-73
2021/12/13 17:50:24;;;;;;;;;80.00;62.75;;;;;;;;5164793;27;11444;-72
2021/12/13 17:52:58;;;;;;;;;76.25;60.00;;;;;;;;5166278;27;12366;-72
2021/12/13 17:55:24;;;;;;;;;75.00;58.00;;;;;;;;5163339;27;13947;-74
2021/12/13 17:57:51;;;;;;;;;73.00;58.00;;;;;;;;5166792;27;11772;-73
2021/12/13 18:00:29;;;;;;;;;71.50;54.25;;;;;;;;5152271;27;8765;-71
2021/12/13 18:03:13;;;;;;;;;75.00;60.50;;;;;;;;5152216;27;11844;-75
2021/12/13 18:05:38;;;;;;;;;72.00;57.50;;;;;;;;5152761;27;12294;-73
2021/12/13 18:08:06;;;;;;;;;70.75;57.50;;;;;;;;5151063;27;9523;-74
2021/12/13 18:10:32;;;;;;;;;76.50;59.25;;;;;;;;5152009;27;8862;-72
2021/12/13 18:12:58;;;;;;;;;71.50;56.50;;;;;;;;5141654;27;12028;-75
2021/12/13 18:15:25;;;;;;;;;76.25;57.25;;;;;;;;5148743;27;11496;-76
2021/12/13 18:18:02;;;;;;;;;81.25;63.75;;;;;;;;5146454;27;11658;-73
2021/12/13 18:20:31;;;;;;;;;83.75;65.00;;;;;;;;5142825;27;14053;-76
2021/12/13 18:23:08;;;;;;;;;66.50;48.50;;;;;;;;5141561;27;11489;-74
2021/12/13 18:25:36;;;;;;;;;88.25;67.75;;;;;;;;5142377;27;14940;-75
2021/12/13 18:28:07;;;;;;;;;76.50;59.75;;;;;;;;5141469;27;13558;-74
2021/12/13 18:30:38;;;;;;;;;72.50;58.00;;;;;;;;5141934;27;12517;-73
2021/12/13 18:33:05;;;;;;;;;73.00;58.50;;;;;;;;5142476;27;11472;-73
2021/12/13 18:35:31;;;;;;;;;71.50;59.00;;;;;;;;5142220;27;11624;-76
2021/12/13 18:37:59;;;;;;;;;74.25;59.75;;;;;;;;5153572;27;11604;-76
2021/12/13 18:40:28;;;;;;;;;73.50;59.50;;;;;;;;5142768;27;13455;-77
2021/12/13 18:43:06;;;;;;;;;70.75;57.00;;;;;;;;5161556;27;11516;-76
2021/12/13 18:45:33;;;;;;;;;63.50;51.75;;;;;;;;5158256;27;11632;-79
2021/12/13 18:48:06;;;;;;;;;61.00;52.25;;;;;;;;5143026;27;15068;-73
2021/12/13 18:50:34;;;;;;;;;70.50;56.75;;;;;;;;5158055;27;11126;-76
2021/12/13 18:53:10;;;;;;;;;69.50;56.00;;;;;;;;5141735;27;14637;-74
2021/12/13 18:55:38;;;;;;;;;52.75;48.25;;;;;;;;5158492;27;13484;-74
2021/12/13 18:58:05;;;;;;;;;66.50;53.00;;;;;;;;5160575;27;14797;-73
2021/12/13 19:00:40;;;;;;;;;77.00;58.50;;;;;;;;5161033;27;13738;-74
2021/12/13 19:03:05;;;;;;;;;69.25;54.00;;;;;;;;5160430;27;13490;-80
2021/12/13 19:05:31;;;;;;;;;64.75;53.25;;;;;;;;5160684;27;13269;-79
2021/12/13 19:08:01;;;;;;;;;73.75;54.25;;;;;;;;5160782;27;11519;-77
2021/12/13 19:10:33;;;;;;;;;70.25;54.25;;;;;;;;5157610;27;10718;-75
2021/12/13 19:13:01;;;;;;;;;67.50;56.25;;;;;;;;5161260;27;8779;-82
2021/12/13 19:15:29;;;;;;;;;57.50;42.25;;;;;;;;5137868;27;12714;-81
2021/12/13 19:18:06;;;;;;;;;69.75;55.75;;;;;;;;5157276;27;10969;-79
2021/12/13 19:20:50;;;;;;;;;70.50;56.50;;;;;;;;5141747;27;12643;-79
2021/12/13 19:23:41;;;;;;;;;65.00;51.00;;;;;;;;5141192;27;13371;-75
2021/12/13 19:26:15;;;;;;;;;63.00;49.50;;;;;;;;5138911;27;13393;-74
2021/12/13 19:28:55;;;;;;;;;65.25;51.75;;;;;;;;5159755;27;12358;-75
2021/12/13 19:31:26;;;;;;;;;63.00;52.75;;;;;;;;5161008;27;13706;-75
2021/12/13 19:33:55;;;;;;;;;63.75;50.00;;;;;;;;5161670;27;10501;-77
2021/12/13 19:36:28;;;;;;;;;57.50;45.25;;;;;;;;5161251;27;11608;-74
2021/12/13 19:39:00;;;;;;;;;52.75;46.50;;;;;;;;5161404;27;13401;-76
2021/12/13 19:41:30;;;;;;;;;42.00;38.75;;;;;;;;5161448;27;12763;-75
2021/12/13 19:44:00;;;;;;;;;68.25;53.25;;;;;;;;5160788;27;13313;-76
2021/12/13 19:46:29;;;;;;;;;62.00;49.25;;;;;;;;5154707;27;12353;-75
2021/12/13 19:48:59;;;;;;;;;63.75;52.25;;;;;;;;5140306;27;11722;-75
2021/12/13 19:51:34;;;;;;;;;64.75;51.00;;;;;;;;5140755;27;11633;-77
2021/12/13 19:54:06;;;;;;;;;63.25;50.25;;;;;;;;5140650;27;11521;-76
2021/12/13 19:56:36;;;;;;;;;63.00;47.50;;;;;;;;5140886;27;11588;-78
2021/12/13 19:59:14;;;;;;;;;59.50;49.25;;;;;;;;5140239;27;13700;-75
2021/12/13 20:01:51;;;;;;;;;57.50;49.25;;;;;;;;5143386;27;13705;-77
2021/12/13 20:04:19;;;;;;;;;58.25;49.00;;;;;;;;5140551;27;8842;-78